Aeroporto :
LOGIN :

Iscrizione | Disclaimer

   EN    FR    IT 

 










Sommario :    VFR   VFR Marginale   IFR   IFR Intensivo   IFR Molto Intensivo
Visibilità : 
Base nubi : 
>= 8 km
>= 3000ft
5 / 8 km
1000 / 3000 ft
1500m / 5 km
500 / 1000 ft
800 / 1500m
200 / 500 ft
< 800m
< 200 ft
Simboli :   Temporali  Nebbia  Neve Forte  Precipitazioni Forti  Vento > 20 kt
SIGMETs :   Varie  Temporali  Ghiacco  Turbolenza  Onda orograficha  Ceneri Vulcaniche






- Altitudine del aeroporto : 36 ft
- Codice IATA : RIX


EVRA - Riga

ULTIMO METAR :
  • 252150Z 34004KT 2100 BR OVC002 08/08 Q1028 NOSIG

METARs OBSOLETI :
  • 252120Z 34004KT 2100 PRFG BR OVC002 08/08 Q1028 NOSIG
  • 252050Z 34003KT 270V010 0600 0500 R36/0600N FG VV001 08/08 Q1027 NOSIG
  • 252020Z VRB01KT 3400 1200 R36/P2000N BR OVC001 08/08 Q1027 BECMG 3000 BR BKN001
  • 251950Z 36005KT 9000 SCT002 08/08 Q1027 TEMPO BKN002
  • 251920Z 30003KT 260V340 CAVOK 08/08 Q1026 NOSIG

TAF TAF EVRA
Valido dal 25 a 21 ore il 26 a 21 ore UTC


252008Z 2521/2621 33007KT 4000 BR BKN001
TEMPO 2521/2606 0700 FG
BECMG 2607/2609 9999 NSW SCT015



MetMap, La meteo Aeronautica in un colpo d'occhio ! - Copyright ORBIFLY Dicembre 2007 - Disclaimer

ORBIFLY MET'MAP TEAM :

Programmazione e sviluppo : Alexandra Zaïnal
Concezione : Baudouin d'Aumeries
Aiuto per la programmazione : Marc-Olivier Méhu
Supporto tecnico e logistico : Manuel Goepfert
Aiuto per la traduzione : Arnaldo La Scala

Contatto : metmap@orbifly.com




FONTI E CREDITI :

   NOAA